sensor_id;sensor_type;location;lat;lon;timestamp;temperature;humidity
21104;DHT22;10710;53.398;-1.514;2023-02-25T00:01:54;5.60;99.90
21104;DHT22;10710;53.398;-1.514;2023-02-25T00:04:21;5.60;99.90
21104;DHT22;10710;53.398;-1.514;2023-02-25T00:06:46;5.60;99.90
21104;DHT22;10710;53.398;-1.514;2023-02-25T00:09:12;5.60;99.90
21104;DHT22;10710;53.398;-1.514;2023-02-25T00:11:38;5.50;99.90
21104;DHT22;10710;53.398;-1.514;2023-02-25T00:14:04;5.60;99.90
21104;DHT22;10710;53.398;-1.514;2023-02-25T00:16:29;5.60;99.90
21104;DHT22;10710;53.398;-1.514;2023-02-25T00:18:58;5.70;99.90
21104;DHT22;10710;53.398;-1.514;2023-02-25T00:21:24;5.70;99.90
21104;DHT22;10710;53.398;-1.514;2023-02-25T00:23:51;5.70;99.90
21104;DHT22;10710;53.398;-1.514;2023-02-25T00:26:18;5.80;99.90
21104;DHT22;10710;53.398;-1.514;2023-02-25T00:28:44;5.90;99.90
21104;DHT22;10710;53.398;-1.514;2023-02-25T00:31:13;5.90;99.90
21104;DHT22;10710;53.398;-1.514;2023-02-25T00:33:39;5.90;99.90
21104;DHT22;10710;53.398;-1.514;2023-02-25T00:36:08;6.00;99.90
21104;DHT22;10710;53.398;-1.514;2023-02-25T00:38:34;5.90;99.90
21104;DHT22;10710;53.398;-1.514;2023-02-25T00:41:22;5.80;99.90
21104;DHT22;10710;53.398;-1.514;2023-02-25T00:43:51;5.80;99.90
21104;DHT22;10710;53.398;-1.514;2023-02-25T00:46:17;5.70;99.90
21104;DHT22;10710;53.398;-1.514;2023-02-25T00:48:43;5.80;99.90
21104;DHT22;10710;53.398;-1.514;2023-02-25T00:51:12;5.60;99.90
21104;DHT22;10710;53.398;-1.514;2023-02-25T00:53:38;5.60;99.90
21104;DHT22;10710;53.398;-1.514;2023-02-25T00:56:06;5.60;99.90
21104;DHT22;10710;53.398;-1.514;2023-02-25T00:58:38;5.60;99.90
21104;DHT22;10710;53.398;-1.514;2023-02-25T01:01:17;5.70;99.90
21104;DHT22;10710;53.398;-1.514;2023-02-25T01:03:42;5.80;99.90
21104;DHT22;10710;53.398;-1.514;2023-02-25T01:06:08;5.80;99.90
21104;DHT22;10710;53.398;-1.514;2023-02-25T01:08:34;5.90;99.90
21104;DHT22;10710;53.398;-1.514;2023-02-25T01:11:18;5.80;99.90
21104;DHT22;10710;53.398;-1.514;2023-02-25T01:13:52;5.90;99.90
21104;DHT22;10710;53.398;-1.514;2023-02-25T01:16:20;5.90;99.90
21104;DHT22;10710;53.398;-1.514;2023-02-25T01:18:46;6.00;99.90
21104;DHT22;10710;53.398;-1.514;2023-02-25T01:21:17;6.00;99.90
21104;DHT22;10710;53.398;-1.514;2023-02-25T01:23:47;5.90;99.90
21104;DHT22;10710;53.398;-1.514;2023-02-25T01:26:14;5.80;99.90
21104;DHT22;10710;53.398;-1.514;2023-02-25T01:28:40;5.80;99.90
21104;DHT22;10710;53.398;-1.514;2023-02-25T01:31:07;5.90;99.90
21104;DHT22;10710;53.398;-1.514;2023-02-25T01:33:41;5.80;99.90
21104;DHT22;10710;53.398;-1.514;2023-02-25T01:36:08;5.90;99.90
21104;DHT22;10710;53.398;-1.514;2023-02-25T01:38:34;5.90;99.90
21104;DHT22;10710;53.398;-1.514;2023-02-25T01:41:00;5.80;99.90
21104;DHT22;10710;53.398;-1.514;2023-02-25T01:43:27;5.70;99.90
21104;DHT22;10710;53.398;-1.514;2023-02-25T01:45:53;5.70;99.90
21104;DHT22;10710;53.398;-1.514;2023-02-25T01:48:21;5.70;99.90
21104;DHT22;10710;53.398;-1.514;2023-02-25T01:50:57;5.60;99.90
21104;DHT22;10710;53.398;-1.514;2023-02-25T01:53:32;5.50;99.90
21104;DHT22;10710;53.398;-1.514;2023-02-25T01:56:00;5.50;99.90
21104;DHT22;10710;53.398;-1.514;2023-02-25T01:58:28;5.40;99.90
21104;DHT22;10710;53.398;-1.514;2023-02-25T02:00:54;5.30;99.90
21104;DHT22;10710;53.398;-1.514;2023-02-25T02:03:32;5.30;99.90
21104;DHT22;10710;53.398;-1.514;2023-02-25T02:08:32;5.30;99.90
21104;DHT22;10710;53.398;-1.514;2023-02-25T02:10:59;5.10;99.90
21104;DHT22;10710;53.398;-1.514;2023-02-25T02:13:26;5.30;99.90
21104;DHT22;10710;53.398;-1.514;2023-02-25T02:18:35;5.20;99.90
21104;DHT22;10710;53.398;-1.514;2023-02-25T02:37:39;5.10;99.90
21104;DHT22;10710;53.398;-1.514;2023-02-25T02:43:17;5.20;99.90
21104;DHT22;10710;53.398;-1.514;2023-02-25T02:46:16;5.30;99.90
21104;DHT22;10710;53.398;-1.514;2023-02-25T02:48:53;5.40;99.90
21104;DHT22;10710;53.398;-1.514;2023-02-25T02:51:33;5.40;99.90
21104;DHT22;10710;53.398;-1.514;2023-02-25T02:54:00;5.30;99.90
21104;DHT22;10710;53.398;-1.514;2023-02-25T02:56:28;5.30;99.90
21104;DHT22;10710;53.398;-1.514;2023-02-25T02:59:02;5.30;99.90
21104;DHT22;10710;53.398;-1.514;2023-02-25T03:01:37;5.30;99.90
21104;DHT22;10710;53.398;-1.514;2023-02-25T03:04:09;5.30;99.90
21104;DHT22;10710;53.398;-1.514;2023-02-25T03:06:41;5.10;99.90
21104;DHT22;10710;53.398;-1.514;2023-02-25T03:09:14;5.10;99.90
21104;DHT22;10710;53.398;-1.514;2023-02-25T03:11:41;5.10;99.90
21104;DHT22;10710;53.398;-1.514;2023-02-25T03:14:07;5.10;99.90
21104;DHT22;10710;53.398;-1.514;2023-02-25T03:16:39;5.00;99.90
21104;DHT22;10710;53.398;-1.514;2023-02-25T03:19:22;5.00;99.90
21104;DHT22;10710;53.398;-1.514;2023-02-25T03:22:23;5.00;99.90
21104;DHT22;10710;53.398;-1.514;2023-02-25T03:27:44;5.00;99.90
21104;DHT22;10710;53.398;-1.514;2023-02-25T03:33:06;5.20;99.90
21104;DHT22;10710;53.398;-1.514;2023-02-25T03:35:34;5.30;99.90
21104;DHT22;10710;53.398;-1.514;2023-02-25T03:38:07;5.30;99.90
21104;DHT22;10710;53.398;-1.514;2023-02-25T03:40:35;5.30;99.90
21104;DHT22;10710;53.398;-1.514;2023-02-25T03:43:12;5.30;99.90
21104;DHT22;10710;53.398;-1.514;2023-02-25T03:45:40;5.30;99.90
21104;DHT22;10710;53.398;-1.514;2023-02-25T03:48:08;5.30;99.90
21104;DHT22;10710;53.398;-1.514;2023-02-25T03:50:41;5.50;99.90
21104;DHT22;10710;53.398;-1.514;2023-02-25T03:53:09;5.50;99.90
21104;DHT22;10710;53.398;-1.514;2023-02-25T03:55:35;5.50;99.90
21104;DHT22;10710;53.398;-1.514;2023-02-25T03:58:01;5.50;99.90
21104;DHT22;10710;53.398;-1.514;2023-02-25T04:00:30;5.50;99.90
21104;DHT22;10710;53.398;-1.514;2023-02-25T04:02:57;5.50;99.90
21104;DHT22;10710;53.398;-1.514;2023-02-25T04:05:24;5.50;99.90
21104;DHT22;10710;53.398;-1.514;2023-02-25T04:07:53;5.50;99.90
21104;DHT22;10710;53.398;-1.514;2023-02-25T04:10:19;5.50;99.90
21104;DHT22;10710;53.398;-1.514;2023-02-25T04:12:45;5.60;99.90
21104;DHT22;10710;53.398;-1.514;2023-02-25T04:15:12;5.70;99.90
21104;DHT22;10710;53.398;-1.514;2023-02-25T04:17:40;5.70;99.90
21104;DHT22;10710;53.398;-1.514;2023-02-25T04:20:07;5.70;99.90
21104;DHT22;10710;53.398;-1.514;2023-02-25T04:22:33;5.70;99.90
21104;DHT22;10710;53.398;-1.514;2023-02-25T04:24:59;5.70;99.90
21104;DHT22;10710;53.398;-1.514;2023-02-25T04:27:25;5.60;99.90
21104;DHT22;10710;53.398;-1.514;2023-02-25T04:29:51;5.70;99.90
21104;DHT22;10710;53.398;-1.514;2023-02-25T04:32:17;5.70;99.90
21104;DHT22;10710;53.398;-1.514;2023-02-25T04:34:43;5.60;99.90
21104;DHT22;10710;53.398;-1.514;2023-02-25T04:37:09;5.60;99.90
21104;DHT22;10710;53.398;-1.514;2023-02-25T04:39:35;5.50;99.90
21104;DHT22;10710;53.398;-1.514;2023-02-25T04:42:01;5.50;99.90
21104;DHT22;10710;53.398;-1.514;2023-02-25T04:44:26;5.40;99.90
21104;DHT22;10710;53.398;-1.514;2023-02-25T04:46:52;5.30;99.90
21104;DHT22;10710;53.398;-1.514;2023-02-25T04:49:20;5.30;99.90
21104;DHT22;10710;53.398;-1.514;2023-02-25T04:51:47;5.30;99.90
21104;DHT22;10710;53.398;-1.514;2023-02-25T04:54:14;5.30;99.90
21104;DHT22;10710;53.398;-1.514;2023-02-25T04:56:40;5.40;99.90
21104;DHT22;10710;53.398;-1.514;2023-02-25T04:59:06;5.50;99.90
21104;DHT22;10710;53.398;-1.514;2023-02-25T05:01:32;5.60;99.90
21104;DHT22;10710;53.398;-1.514;2023-02-25T05:03:58;5.60;99.90
21104;DHT22;10710;53.398;-1.514;2023-02-25T05:06:29;5.60;99.90
21104;DHT22;10710;53.398;-1.514;2023-02-25T05:08:56;5.70;99.90
21104;DHT22;10710;53.398;-1.514;2023-02-25T05:11:24;5.80;99.90
21104;DHT22;10710;53.398;-1.514;2023-02-25T05:13:50;5.80;99.90
21104;DHT22;10710;53.398;-1.514;2023-02-25T05:16:17;5.70;99.90
21104;DHT22;10710;53.398;-1.514;2023-02-25T05:18:44;5.70;99.90
21104;DHT22;10710;53.398;-1.514;2023-02-25T05:21:14;5.60;99.90
21104;DHT22;10710;53.398;-1.514;2023-02-25T05:23:41;5.50;99.90
21104;DHT22;10710;53.398;-1.514;2023-02-25T05:26:08;5.40;99.90
21104;DHT22;10710;53.398;-1.514;2023-02-25T05:28:34;5.40;99.90
21104;DHT22;10710;53.398;-1.514;2023-02-25T05:31:04;5.40;99.90
21104;DHT22;10710;53.398;-1.514;2023-02-25T05:33:30;5.50;99.90
21104;DHT22;10710;53.398;-1.514;2023-02-25T05:35:55;5.60;99.90
21104;DHT22;10710;53.398;-1.514;2023-02-25T05:38:21;5.50;99.90
21104;DHT22;10710;53.398;-1.514;2023-02-25T05:40:47;5.50;99.90
21104;DHT22;10710;53.398;-1.514;2023-02-25T05:43:12;5.40;99.90
21104;DHT22;10710;53.398;-1.514;2023-02-25T05:45:38;5.40;99.90
21104;DHT22;10710;53.398;-1.514;2023-02-25T05:48:04;5.40;99.90
21104;DHT22;10710;53.398;-1.514;2023-02-25T05:50:29;5.40;99.90
21104;DHT22;10710;53.398;-1.514;2023-02-25T05:52:59;5.50;99.90
21104;DHT22;10710;53.398;-1.514;2023-02-25T05:55:25;5.50;99.90
21104;DHT22;10710;53.398;-1.514;2023-02-25T05:57:52;5.60;99.90
21104;DHT22;10710;53.398;-1.514;2023-02-25T06:00:18;5.50;99.90
21104;DHT22;10710;53.398;-1.514;2023-02-25T06:02:46;5.40;99.90
21104;DHT22;10710;53.398;-1.514;2023-02-25T06:05:13;5.30;99.90
21104;DHT22;10710;53.398;-1.514;2023-02-25T06:07:38;5.30;99.90
21104;DHT22;10710;53.398;-1.514;2023-02-25T06:10:04;5.30;99.90
21104;DHT22;10710;53.398;-1.514;2023-02-25T06:12:32;5.30;99.90
21104;DHT22;10710;53.398;-1.514;2023-02-25T06:14:58;5.20;99.90
21104;DHT22;10710;53.398;-1.514;2023-02-25T06:17:24;5.30;99.90
21104;DHT22;10710;53.398;-1.514;2023-02-25T06:19:51;5.30;99.90
21104;DHT22;10710;53.398;-1.514;2023-02-25T06:22:18;5.30;99.90
21104;DHT22;10710;53.398;-1.514;2023-02-25T06:24:44;5.40;99.90
21104;DHT22;10710;53.398;-1.514;2023-02-25T06:27:10;5.50;99.90
21104;DHT22;10710;53.398;-1.514;2023-02-25T06:29:36;5.40;99.90
21104;DHT22;10710;53.398;-1.514;2023-02-25T06:32:06;5.50;99.90
21104;DHT22;10710;53.398;-1.514;2023-02-25T06:34:32;5.50;99.90
21104;DHT22;10710;53.398;-1.514;2023-02-25T06:36:59;5.60;99.90
21104;DHT22;10710;53.398;-1.514;2023-02-25T06:39:25;5.50;99.90
21104;DHT22;10710;53.398;-1.514;2023-02-25T06:41:51;5.60;99.90
21104;DHT22;10710;53.398;-1.514;2023-02-25T06:44:16;5.50;99.90
21104;DHT22;10710;53.398;-1.514;2023-02-25T06:46:42;5.50;99.90
21104;DHT22;10710;53.398;-1.514;2023-02-25T06:49:08;5.40;99.90
21104;DHT22;10710;53.398;-1.514;2023-02-25T06:51:33;5.50;99.90
21104;DHT22;10710;53.398;-1.514;2023-02-25T06:54:01;5.50;99.90
21104;DHT22;10710;53.398;-1.514;2023-02-25T06:56:27;5.40;99.90
21104;DHT22;10710;53.398;-1.514;2023-02-25T06:58:54;5.50;99.90
21104;DHT22;10710;53.398;-1.514;2023-02-25T07:01:21;5.50;99.90
21104;DHT22;10710;53.398;-1.514;2023-02-25T07:03:46;5.50;99.90
21104;DHT22;10710;53.398;-1.514;2023-02-25T07:06:12;5.50;99.90
21104;DHT22;10710;53.398;-1.514;2023-02-25T07:08:40;5.60;99.90
21104;DHT22;10710;53.398;-1.514;2023-02-25T07:13:45;5.60;99.90
21104;DHT22;10710;53.398;-1.514;2023-02-25T07:16:13;5.60;99.90
21104;DHT22;10710;53.398;-1.514;2023-02-25T07:18:40;5.50;99.90
21104;DHT22;10710;53.398;-1.514;2023-02-25T07:21:06;5.60;99.90
21104;DHT22;10710;53.398;-1.514;2023-02-25T07:23:32;5.60;99.90
21104;DHT22;10710;53.398;-1.514;2023-02-25T07:26:02;5.60;99.90
21104;DHT22;10710;53.398;-1.514;2023-02-25T07:28:28;5.60;99.90
21104;DHT22;10710;53.398;-1.514;2023-02-25T07:30:53;5.70;99.90
21104;DHT22;10710;53.398;-1.514;2023-02-25T07:33:19;5.80;99.90
21104;DHT22;10710;53.398;-1.514;2023-02-25T07:35:45;5.90;99.90
21104;DHT22;10710;53.398;-1.514;2023-02-25T07:38:10;5.90;99.90
21104;DHT22;10710;53.398;-1.514;2023-02-25T07:40:38;5.90;99.90
21104;DHT22;10710;53.398;-1.514;2023-02-25T07:43:06;5.80;99.90
21104;DHT22;10710;53.398;-1.514;2023-02-25T07:45:31;5.80;99.90
21104;DHT22;10710;53.398;-1.514;2023-02-25T07:47:57;5.90;99.90
21104;DHT22;10710;53.398;-1.514;2023-02-25T07:50:23;6.00;99.90
21104;DHT22;10710;53.398;-1.514;2023-02-25T07:52:48;6.00;99.90
21104;DHT22;10710;53.398;-1.514;2023-02-25T07:55:14;6.00;99.90
21104;DHT22;10710;53.398;-1.514;2023-02-25T07:57:40;6.10;99.90
21104;DHT22;10710;53.398;-1.514;2023-02-25T08:00:06;6.00;99.90
21104;DHT22;10710;53.398;-1.514;2023-02-25T08:02:35;6.00;99.90
21104;DHT22;10710;53.398;-1.514;2023-02-25T08:05:01;6.00;99.90
21104;DHT22;10710;53.398;-1.514;2023-02-25T08:07:28;6.00;99.90
21104;DHT22;10710;53.398;-1.514;2023-02-25T08:09:54;6.00;99.90
21104;DHT22;10710;53.398;-1.514;2023-02-25T08:12:20;6.10;99.90
21104;DHT22;10710;53.398;-1.514;2023-02-25T08:14:45;6.00;99.90
21104;DHT22;10710;53.398;-1.514;2023-02-25T08:17:11;6.10;99.90
21104;DHT22;10710;53.398;-1.514;2023-02-25T08:19:38;5.90;99.90
21104;DHT22;10710;53.398;-1.514;2023-02-25T08:22:04;6.10;99.90
21104;DHT22;10710;53.398;-1.514;2023-02-25T08:24:30;6.10;99.90
21104;DHT22;10710;53.398;-1.514;2023-02-25T08:26:57;6.20;99.90
21104;DHT22;10710;53.398;-1.514;2023-02-25T08:29:22;6.20;99.90
21104;DHT22;10710;53.398;-1.514;2023-02-25T08:31:49;6.20;99.90
21104;DHT22;10710;53.398;-1.514;2023-02-25T08:34:16;6.20;99.90
21104;DHT22;10710;53.398;-1.514;2023-02-25T08:36:42;6.20;99.90
21104;DHT22;10710;53.398;-1.514;2023-02-25T08:39:08;6.20;99.90
21104;DHT22;10710;53.398;-1.514;2023-02-25T08:41:35;6.00;99.90
21104;DHT22;10710;53.398;-1.514;2023-02-25T08:44:01;6.00;99.90
21104;DHT22;10710;53.398;-1.514;2023-02-25T08:46:28;6.10;99.90
21104;DHT22;10710;53.398;-1.514;2023-02-25T08:48:55;6.30;99.90
21104;DHT22;10710;53.398;-1.514;2023-02-25T08:51:23;6.30;99.90
21104;DHT22;10710;53.398;-1.514;2023-02-25T08:53:50;6.20;99.90
21104;DHT22;10710;53.398;-1.514;2023-02-25T08:56:16;6.20;99.90
21104;DHT22;10710;53.398;-1.514;2023-02-25T08:58:42;6.30;99.90
21104;DHT22;10710;53.398;-1.514;2023-02-25T09:01:13;6.40;99.90
21104;DHT22;10710;53.398;-1.514;2023-02-25T09:03:44;6.40;99.90
21104;DHT22;10710;53.398;-1.514;2023-02-25T09:06:26;6.50;99.90
21104;DHT22;10710;53.398;-1.514;2023-02-25T09:08:53;6.60;99.90
21104;DHT22;10710;53.398;-1.514;2023-02-25T09:11:20;6.80;99.90
21104;DHT22;10710;53.398;-1.514;2023-02-25T09:13:46;6.80;99.90
21104;DHT22;10710;53.398;-1.514;2023-02-25T09:16:12;6.70;99.90
21104;DHT22;10710;53.398;-1.514;2023-02-25T09:18:40;6.70;99.90
21104;DHT22;10710;53.398;-1.514;2023-02-25T09:21:05;6.60;99.90
21104;DHT22;10710;53.398;-1.514;2023-02-25T09:23:31;6.70;99.90
21104;DHT22;10710;53.398;-1.514;2023-02-25T09:26:02;6.70;99.90
21104;DHT22;10710;53.398;-1.514;2023-02-25T09:28:28;6.80;99.90
21104;DHT22;10710;53.398;-1.514;2023-02-25T09:30:55;6.80;99.90
21104;DHT22;10710;53.398;-1.514;2023-02-25T09:33:23;6.80;99.90
21104;DHT22;10710;53.398;-1.514;2023-02-25T09:35:48;6.90;99.90
21104;DHT22;10710;53.398;-1.514;2023-02-25T09:38:14;6.90;99.90
21104;DHT22;10710;53.398;-1.514;2023-02-25T09:40:45;6.80;99.90
21104;DHT22;10710;53.398;-1.514;2023-02-25T09:43:29;6.70;99.90
21104;DHT22;10710;53.398;-1.514;2023-02-25T09:46:09;6.60;99.90
21104;DHT22;10710;53.398;-1.514;2023-02-25T09:51:40;6.80;99.90
21104;DHT22;10710;53.398;-1.514;2023-02-25T09:54:44;6.90;99.90
21104;DHT22;10710;53.398;-1.514;2023-02-25T09:57:14;6.90;99.90
21104;DHT22;10710;53.398;-1.514;2023-02-25T09:59:46;6.90;99.90
21104;DHT22;10710;53.398;-1.514;2023-02-25T10:02:35;7.20;99.90
21104;DHT22;10710;53.398;-1.514;2023-02-25T10:05:27;7.30;99.90
21104;DHT22;10710;53.398;-1.514;2023-02-25T10:11:05;7.20;99.90
21104;DHT22;10710;53.398;-1.514;2023-02-25T10:22:45;7.50;99.90
21104;DHT22;10710;53.398;-1.514;2023-02-25T10:25:22;7.40;99.90
21104;DHT22;10710;53.398;-1.514;2023-02-25T10:28:13;7.40;99.90
21104;DHT22;10710;53.398;-1.514;2023-02-25T10:31:20;7.60;99.90
21104;DHT22;10710;53.398;-1.514;2023-02-25T10:33:39;7.60;99.90
21104;DHT22;10710;53.398;-1.514;2023-02-25T10:36:17;7.60;99.90
21104;DHT22;10710;53.398;-1.514;2023-02-25T10:38:49;7.80;99.90
21104;DHT22;10710;53.398;-1.514;2023-02-25T10:41:16;7.80;99.90
21104;DHT22;10710;53.398;-1.514;2023-02-25T10:43:44;7.70;99.90
21104;DHT22;10710;53.398;-1.514;2023-02-25T10:48:43;7.60;99.90
21104;DHT22;10710;53.398;-1.514;2023-02-25T10:51:14;7.70;99.90
21104;DHT22;10710;53.398;-1.514;2023-02-25T10:54:02;7.80;99.90
21104;DHT22;10710;53.398;-1.514;2023-02-25T10:56:42;7.80;99.90
21104;DHT22;10710;53.398;-1.514;2023-02-25T10:59:35;7.90;99.90
21104;DHT22;10710;53.398;-1.514;2023-02-25T11:02:19;7.90;99.90
21104;DHT22;10710;53.398;-1.514;2023-02-25T11:04:47;8.10;99.90
21104;DHT22;10710;53.398;-1.514;2023-02-25T11:07:39;8.20;99.90
21104;DHT22;10710;53.398;-1.514;2023-02-25T11:10:18;8.20;99.90
21104;DHT22;10710;53.398;-1.514;2023-02-25T11:12:49;8.00;99.90
21104;DHT22;10710;53.398;-1.514;2023-02-25T11:20:51;7.70;99.90
21104;DHT22;10710;53.398;-1.514;2023-02-25T11:26:13;7.90;99.90
21104;DHT22;10710;53.398;-1.514;2023-02-25T11:28:47;7.80;99.90
21104;DHT22;10710;53.398;-1.514;2023-02-25T11:31:19;7.70;99.90
21104;DHT22;10710;53.398;-1.514;2023-02-25T11:33:55;7.60;99.90
21104;DHT22;10710;53.398;-1.514;2023-02-25T11:36:28;7.70;99.90
21104;DHT22;10710;53.398;-1.514;2023-02-25T11:41:39;7.80;99.90
21104;DHT22;10710;53.398;-1.514;2023-02-25T11:46:46;8.20;99.90
21104;DHT22;10710;53.398;-1.514;2023-02-25T11:49:41;8.50;99.90
21104;DHT22;10710;53.398;-1.514;2023-02-25T11:52:23;8.40;99.90
21104;DHT22;10710;53.398;-1.514;2023-02-25T12:20:51;9.10;99.90
21104;DHT22;10710;53.398;-1.514;2023-02-25T12:23:48;9.00;99.90
21104;DHT22;10710;53.398;-1.514;2023-02-25T12:32:26;8.80;99.90
21104;DHT22;10710;53.398;-1.514;2023-02-25T12:45:48;8.20;99.90
21104;DHT22;10710;53.398;-1.514;2023-02-25T12:56:58;7.30;99.90
21104;DHT22;10710;53.398;-1.514;2023-02-25T13:24:10;8.00;99.90
21104;DHT22;10710;53.398;-1.514;2023-02-25T13:30:01;8.70;99.90
21104;DHT22;10710;53.398;-1.514;2023-02-25T13:35:31;8.60;99.90
21104;DHT22;10710;53.398;-1.514;2023-02-25T13:38:21;8.30;99.90
21104;DHT22;10710;53.398;-1.514;2023-02-25T14:05:40;8.90;99.90
21104;DHT22;10710;53.398;-1.514;2023-02-25T14:11:31;8.80;99.90
21104;DHT22;10710;53.398;-1.514;2023-02-25T14:22:21;8.60;99.90
21104;DHT22;10710;53.398;-1.514;2023-02-25T14:31:01;8.10;99.90
21104;DHT22;10710;53.398;-1.514;2023-02-25T14:33:53;8.10;99.90
21104;DHT22;10710;53.398;-1.514;2023-02-25T14:42:20;8.40;99.90
21104;DHT22;10710;53.398;-1.514;2023-02-25T14:44:58;8.40;99.90
21104;DHT22;10710;53.398;-1.514;2023-02-25T14:47:33;8.60;99.90
21104;DHT22;10710;53.398;-1.514;2023-02-25T14:50:17;8.80;99.90
21104;DHT22;10710;53.398;-1.514;2023-02-25T15:01:36;9.40;99.90
21104;DHT22;10710;53.398;-1.514;2023-02-25T15:19:04;8.40;99.90
21104;DHT22;10710;53.398;-1.514;2023-02-25T15:21:40;8.50;99.90
21104;DHT22;10710;53.398;-1.514;2023-02-25T15:26:53;8.50;99.90
21104;DHT22;10710;53.398;-1.514;2023-02-25T15:32:24;8.30;99.90
21104;DHT22;10710;53.398;-1.514;2023-02-25T15:34:59;8.10;99.90
21104;DHT22;10710;53.398;-1.514;2023-02-25T15:39:58;8.30;99.90
21104;DHT22;10710;53.398;-1.514;2023-02-25T15:42:54;8.40;99.90
21104;DHT22;10710;53.398;-1.514;2023-02-25T15:53:09;8.40;99.90
21104;DHT22;10710;53.398;-1.514;2023-02-25T15:55:43;8.20;99.90
21104;DHT22;10710;53.398;-1.514;2023-02-25T16:00:53;8.00;99.90
21104;DHT22;10710;53.398;-1.514;2023-02-25T16:06:22;8.00;99.90
21104;DHT22;10710;53.398;-1.514;2023-02-25T16:08:55;8.10;99.90
21104;DHT22;10710;53.398;-1.514;2023-02-25T16:11:45;8.20;99.90
21104;DHT22;10710;53.398;-1.514;2023-02-25T16:14:16;8.20;99.90
21104;DHT22;10710;53.398;-1.514;2023-02-25T16:16:49;8.30;99.90
21104;DHT22;10710;53.398;-1.514;2023-02-25T16:19:17;8.50;99.90
21104;DHT22;10710;53.398;-1.514;2023-02-25T16:21:47;8.50;99.90
21104;DHT22;10710;53.398;-1.514;2023-02-25T16:24:15;8.40;99.90
21104;DHT22;10710;53.398;-1.514;2023-02-25T16:26:57;8.50;99.90
21104;DHT22;10710;53.398;-1.514;2023-02-25T16:29:47;8.40;99.90
21104;DHT22;10710;53.398;-1.514;2023-02-25T16:32:51;8.40;99.90
21104;DHT22;10710;53.398;-1.514;2023-02-25T16:41:07;8.00;99.90
21104;DHT22;10710;53.398;-1.514;2023-02-25T16:43:36;7.80;99.90
21104;DHT22;10710;53.398;-1.514;2023-02-25T16:46:07;7.70;99.90
21104;DHT22;10710;53.398;-1.514;2023-02-25T16:48:56;7.70;99.90
21104;DHT22;10710;53.398;-1.514;2023-02-25T16:54:12;7.40;99.90
21104;DHT22;10710;53.398;-1.514;2023-02-25T16:56:39;7.50;99.90
21104;DHT22;10710;53.398;-1.514;2023-02-25T17:01:36;7.50;99.90
21104;DHT22;10710;53.398;-1.514;2023-02-25T17:04:13;7.50;99.90
21104;DHT22;10710;53.398;-1.514;2023-02-25T17:06:40;7.50;99.90
21104;DHT22;10710;53.398;-1.514;2023-02-25T17:09:06;7.50;99.90
21104;DHT22;10710;53.398;-1.514;2023-02-25T17:11:31;7.50;99.90
21104;DHT22;10710;53.398;-1.514;2023-02-25T17:14:02;7.50;99.90
21104;DHT22;10710;53.398;-1.514;2023-02-25T17:16:39;7.50;99.90
21104;DHT22;10710;53.398;-1.514;2023-02-25T17:19:07;7.60;99.90
21104;DHT22;10710;53.398;-1.514;2023-02-25T17:21:41;7.50;99.90
21104;DHT22;10710;53.398;-1.514;2023-02-25T17:24:14;7.50;99.90
21104;DHT22;10710;53.398;-1.514;2023-02-25T17:26:43;7.50;99.90
21104;DHT22;10710;53.398;-1.514;2023-02-25T17:29:12;7.50;99.90
21104;DHT22;10710;53.398;-1.514;2023-02-25T17:31:53;7.30;99.90
21104;DHT22;10710;53.398;-1.514;2023-02-25T17:34:31;7.30;99.90
21104;DHT22;10710;53.398;-1.514;2023-02-25T17:37:01;7.40;99.90
21104;DHT22;10710;53.398;-1.514;2023-02-25T17:39:27;7.30;99.90
21104;DHT22;10710;53.398;-1.514;2023-02-25T17:41:54;7.30;99.90
21104;DHT22;10710;53.398;-1.514;2023-02-25T17:44:50;7.20;99.90
21104;DHT22;10710;53.398;-1.514;2023-02-25T17:47:21;7.10;99.90
21104;DHT22;10710;53.398;-1.514;2023-02-25T17:49:48;7.10;99.90
21104;DHT22;10710;53.398;-1.514;2023-02-25T17:52:21;7.10;99.90
21104;DHT22;10710;53.398;-1.514;2023-02-25T17:54:52;6.90;99.90
21104;DHT22;10710;53.398;-1.514;2023-02-25T17:57:24;6.90;99.90
21104;DHT22;10710;53.398;-1.514;2023-02-25T18:02:40;6.70;99.90
21104;DHT22;10710;53.398;-1.514;2023-02-25T18:07:57;6.60;99.90
21104;DHT22;10710;53.398;-1.514;2023-02-25T18:12:55;6.60;99.90
21104;DHT22;10710;53.398;-1.514;2023-02-25T18:15:26;6.50;99.90
21104;DHT22;10710;53.398;-1.514;2023-02-25T18:17:56;6.50;99.90
21104;DHT22;10710;53.398;-1.514;2023-02-25T18:20:39;6.50;99.90
21104;DHT22;10710;53.398;-1.514;2023-02-25T18:25:40;6.50;99.90
21104;DHT22;10710;53.398;-1.514;2023-02-25T18:28:20;6.50;99.90
21104;DHT22;10710;53.398;-1.514;2023-02-25T18:30:47;6.50;99.90
21104;DHT22;10710;53.398;-1.514;2023-02-25T18:33:14;6.50;99.90
21104;DHT22;10710;53.398;-1.514;2023-02-25T18:35:43;6.50;99.90
21104;DHT22;10710;53.398;-1.514;2023-02-25T18:38:16;6.40;99.90
21104;DHT22;10710;53.398;-1.514;2023-02-25T18:40:43;6.40;99.90
21104;DHT22;10710;53.398;-1.514;2023-02-25T18:43:17;6.30;99.90
21104;DHT22;10710;53.398;-1.514;2023-02-25T18:45:43;6.40;99.90
21104;DHT22;10710;53.398;-1.514;2023-02-25T18:48:09;6.30;99.90
21104;DHT22;10710;53.398;-1.514;2023-02-25T18:50:35;6.30;99.90
21104;DHT22;10710;53.398;-1.514;2023-02-25T18:53:01;6.40;99.90
21104;DHT22;10710;53.398;-1.514;2023-02-25T18:55:30;6.50;99.90
21104;DHT22;10710;53.398;-1.514;2023-02-25T18:57:57;6.70;99.90
21104;DHT22;10710;53.398;-1.514;2023-02-25T19:00:24;6.60;99.90
21104;DHT22;10710;53.398;-1.514;2023-02-25T19:03:02;6.70;99.90
21104;DHT22;10710;53.398;-1.514;2023-02-25T19:05:29;6.70;99.90
21104;DHT22;10710;53.398;-1.514;2023-02-25T19:07:55;6.70;99.90
21104;DHT22;10710;53.398;-1.514;2023-02-25T19:10:29;6.70;99.90
21104;DHT22;10710;53.398;-1.514;2023-02-25T19:13:16;6.80;99.90
21104;DHT22;10710;53.398;-1.514;2023-02-25T19:15:43;6.70;99.90
21104;DHT22;10710;53.398;-1.514;2023-02-25T19:18:13;6.70;99.90
21104;DHT22;10710;53.398;-1.514;2023-02-25T19:20:40;6.70;99.90
21104;DHT22;10710;53.398;-1.514;2023-02-25T19:23:12;6.70;99.90
21104;DHT22;10710;53.398;-1.514;2023-02-25T19:25:40;6.80;99.90
21104;DHT22;10710;53.398;-1.514;2023-02-25T19:28:07;6.70;99.90
21104;DHT22;10710;53.398;-1.514;2023-02-25T19:30:37;6.80;99.90
21104;DHT22;10710;53.398;-1.514;2023-02-25T19:33:05;6.80;99.90
21104;DHT22;10710;53.398;-1.514;2023-02-25T19:35:33;6.80;99.90
21104;DHT22;10710;53.398;-1.514;2023-02-25T19:38:00;6.70;99.90
21104;DHT22;10710;53.398;-1.514;2023-02-25T19:40:26;6.60;99.90
21104;DHT22;10710;53.398;-1.514;2023-02-25T19:42:53;6.50;99.90
21104;DHT22;10710;53.398;-1.514;2023-02-25T19:45:21;6.50;99.90
21104;DHT22;10710;53.398;-1.514;2023-02-25T19:47:48;6.40;99.90
21104;DHT22;10710;53.398;-1.514;2023-02-25T19:50:15;6.40;99.90
21104;DHT22;10710;53.398;-1.514;2023-02-25T19:52:42;6.30;99.90
21104;DHT22;10710;53.398;-1.514;2023-02-25T19:55:08;6.30;99.90
21104;DHT22;10710;53.398;-1.514;2023-02-25T19:57:36;6.20;99.90
21104;DHT22;10710;53.398;-1.514;2023-02-25T20:00:04;6.20;99.90
21104;DHT22;10710;53.398;-1.514;2023-02-25T20:02:30;6.10;99.90
21104;DHT22;10710;53.398;-1.514;2023-02-25T20:04:56;6.10;99.90
21104;DHT22;10710;53.398;-1.514;2023-02-25T20:07:24;6.20;99.90
21104;DHT22;10710;53.398;-1.514;2023-02-25T20:09:50;6.20;99.90
21104;DHT22;10710;53.398;-1.514;2023-02-25T20:12:15;6.30;99.90